バンダルスリブガワン の空港の天気 - METARとTAF

ブルネイ国際空港 ( WBSB / BWN ) - ブルネイ バンダルスリブガワン
飛行場実況気象(Metar)
観測時間10/20 12:00 BNT (10/20 04:00 UTC)
風向・風速北 2m/s
視程10km以上
天気現象
全天の4割程度の雲 雲底高度 490m
全天の8割程度の雲 雲底高度 9140m
気温32℃
湿度71%
気圧1010hPa
METARWBSB 200400Z 35004KT 9999 SCT016 BKN300 32/26 Q1010 NOSIG
過去の天気等 Google飛行場航空写真 Wunderground天気予報

過去48時間のMETAR

飛行場予報(TAF)
発表時間: 10/20 06:50 BNT (10/19 22:50 UTC)
予報対象時間: 20日8時 BNT ~ 21日14時 BNT
風向・風速南南西 2m/s
視程10km以上
少しの雲 雲底高度 460m
20日12時 BNT ~ 20日14時 BNT に徐々に
風向・風速北西 5m/s
少しの雲 雲底高度 490m
少しの積乱雲 雲底高度 520m
20日17時 BNT ~ 20日21時 BNT に 確率 40% で一時的に
視程6000m
天気現象弱い雷雨
TAF WBSB 192250Z 2000/2106 20003KT 9999 FEW015
BECMG 2004/2006 32010KT FEW016 FEW017CB
PROB40 TEMPO 2009/2013 6000 -TSRA